createdAt,value
2023-05-19T09:32:00.000Z,94
2023-05-19T09:32:03.000Z,106
2023-05-19T09:32:05.000Z,104
2023-05-19T09:32:08.000Z,104
2023-05-19T09:32:10.000Z,104
2023-05-19T09:32:13.000Z,103
2023-05-19T09:32:15.000Z,104
2023-05-19T09:32:18.000Z,103
2023-05-19T09:32:20.000Z,104
2023-05-19T09:32:20.000Z,92
2023-05-19T09:32:23.000Z,104
2023-05-19T09:32:25.000Z,104
2023-05-19T09:32:28.000Z,104
2023-05-19T09:32:30.000Z,104
2023-05-19T09:32:33.000Z,104
2023-05-19T09:32:36.000Z,104
2023-05-19T09:32:38.000Z,102
2023-05-19T09:32:41.000Z,103
2023-05-19T09:32:41.000Z,104
2023-05-19T09:32:43.000Z,104
2023-05-19T09:32:46.000Z,104
2023-05-19T09:32:48.000Z,104
2023-05-19T09:32:51.000Z,104
2023-05-19T09:32:53.000Z,104
2023-05-19T09:32:56.000Z,103
2023-05-19T09:32:58.000Z,103
2023-05-19T09:33:00.000Z,105
2023-05-19T09:33:00.000Z,91
2023-05-19T09:40:24.000Z,104
2023-05-19T09:40:26.000Z,105
2023-05-19T09:40:29.000Z,104
2023-05-19T09:40:32.000Z,103
2023-05-19T09:40:34.000Z,105
2023-05-19T09:40:37.000Z,103
2023-05-19T09:40:39.000Z,104
2023-05-19T09:40:42.000Z,105
2023-05-19T09:40:42.000Z,104
2023-05-19T09:40:44.000Z,103
2023-05-19T09:40:47.000Z,104
2023-05-19T09:40:49.000Z,105
2023-05-19T09:40:52.000Z,103
2023-05-19T09:40:54.000Z,104
2023-05-19T09:40:57.000Z,103
2023-05-19T09:40:59.000Z,106
2023-05-19T09:41:02.000Z,102
2023-05-19T09:41:02.000Z,103
2023-05-19T09:41:04.000Z,106
2023-05-19T09:41:07.000Z,103
2023-05-19T09:41:10.000Z,103
2023-05-19T09:41:12.000Z,103
2023-05-19T09:41:15.000Z,104
2023-05-19T09:41:17.000Z,104
2023-05-19T09:41:20.000Z,103
2023-05-19T09:41:22.000Z,105
2023-05-19T09:41:22.000Z,103
2023-05-19T09:41:25.000Z,104
2023-05-19T09:41:27.000Z,103
2023-05-19T09:41:30.000Z,106
2023-05-19T09:41:32.000Z,104
2023-05-19T09:41:32.000Z,104
2023-05-19T09:50:03.000Z,102
2023-05-19T09:50:06.000Z,105
2023-05-19T09:50:08.000Z,105
2023-05-19T09:50:11.000Z,104
2023-05-19T09:50:13.000Z,104
2023-05-19T09:50:16.000Z,104
2023-05-19T09:50:18.000Z,104
2023-05-19T09:50:21.000Z,103
2023-05-19T09:50:21.000Z,106
2023-05-19T09:50:24.000Z,106
2023-05-19T09:50:26.000Z,104
2023-05-19T09:50:29.000Z,105
2023-05-19T09:50:31.000Z,103
2023-05-19T09:50:34.000Z,10
2023-05-19T09:50:36.000Z,6
2023-05-19T09:50:40.000Z,34
2023-05-19T09:50:41.000Z,400
2023-05-19T09:50:42.000Z,114
2023-05-19T09:50:45.000Z,38
2023-05-19T09:50:47.000Z,105
2023-05-19T09:50:50.000Z,36
2023-05-19T09:50:53.000Z,112
2023-05-19T09:50:55.000Z,113
2023-05-19T09:50:58.000Z,113
2023-05-19T09:51:00.000Z,110
2023-05-19T09:51:02.000Z,107
2023-05-19T09:51:03.000Z,105
2023-05-19T09:51:05.000Z,16
2023-05-19T09:51:09.000Z,23
2023-05-19T09:51:21.000Z,20
2023-05-19T09:51:22.000Z,39
2023-05-19T09:51:25.000Z,44
2023-05-19T09:51:42.000Z,400
2023-05-19T09:52:02.000Z,400
2023-05-19T09:52:05.000Z,24
2023-05-19T09:52:08.000Z,25
2023-05-19T09:52:17.000Z,19
2023-05-19T09:52:21.000Z,115
2023-05-19T09:52:23.000Z,400
2023-05-19T09:52:27.000Z,142
2023-05-19T09:52:33.000Z,115
2023-05-19T09:52:40.000Z,115
2023-05-19T09:52:43.000Z,400
2023-05-19T09:52:58.000Z,147
2023-05-19T09:53:02.000Z,134
2023-05-19T09:53:03.000Z,400
2023-05-19T09:53:05.000Z,138
2023-05-19T09:53:07.000Z,139
2023-05-19T09:53:10.000Z,138
2023-05-19T09:53:18.000Z,129
2023-05-19T09:53:21.000Z,97
2023-05-19T09:53:23.000Z,400
2023-05-19T09:53:30.000Z,92
2023-05-19T09:53:44.000Z,400
2023-05-19T09:54:04.000Z,400
2023-05-19T09:54:06.000Z,148
2023-05-19T09:54:10.000Z,89
2023-05-19T09:54:14.000Z,138
2023-05-19T09:54:17.000Z,85
2023-05-19T09:54:24.000Z,400
2023-05-19T09:54:27.000Z,92
2023-05-19T09:54:30.000Z,149
2023-05-19T09:54:41.000Z,138
2023-05-19T09:54:44.000Z,146
2023-05-19T09:54:45.000Z,145
2023-05-19T09:54:47.000Z,120
2023-05-19T09:55:05.000Z,400
2023-05-19T09:55:11.000Z,138
2023-05-19T09:55:21.000Z,87
2023-05-19T09:55:25.000Z,400
2023-05-19T09:55:26.000Z,148
2023-05-19T09:55:29.000Z,140
2023-05-19T09:55:32.000Z,143
2023-05-19T09:55:35.000Z,146
2023-05-19T09:55:37.000Z,99
2023-05-19T09:55:40.000Z,149
2023-05-19T09:55:45.000Z,147
2023-05-19T09:55:45.000Z,400
2023-05-19T09:55:49.000Z,138
2023-05-19T09:55:52.000Z,146
2023-05-19T09:55:57.000Z,144
2023-05-19T09:56:03.000Z,112
2023-05-19T09:56:06.000Z,400
2023-05-19T09:56:07.000Z,140
2023-05-19T09:56:10.000Z,129
2023-05-19T09:56:14.000Z,134
2023-05-19T09:56:17.000Z,146
2023-05-19T09:56:21.000Z,141
2023-05-19T09:56:23.000Z,133
2023-05-19T09:56:26.000Z,144
2023-05-19T09:56:26.000Z,400
2023-05-19T09:56:29.000Z,67
2023-05-19T09:56:39.000Z,133
2023-05-19T09:56:44.000Z,140
2023-05-19T09:56:46.000Z,223
2023-05-19T09:57:06.000Z,400
2023-05-19T09:57:27.000Z,400
2023-05-19T09:57:47.000Z,400
2023-05-19T09:58:07.000Z,400
2023-05-19T09:58:28.000Z,400
2023-05-19T09:58:32.000Z,132
2023-05-19T09:58:35.000Z,131
2023-05-19T09:58:48.000Z,400
2023-05-19T09:59:08.000Z,400
2023-05-19T09:59:17.000Z,116
2023-05-19T09:59:28.000Z,400
2023-05-19T09:59:49.000Z,400
2023-05-19T10:00:09.000Z,400
2023-05-19T10:00:29.000Z,400
2023-05-19T10:00:43.000Z,148
2023-05-19T10:00:47.000Z,148
2023-05-19T10:00:49.000Z,400
2023-05-19T10:00:50.000Z,149
2023-05-19T10:00:53.000Z,107
2023-05-19T10:00:56.000Z,110
2023-05-19T10:00:58.000Z,125
2023-05-19T10:01:01.000Z,139
2023-05-19T10:01:05.000Z,146
2023-05-19T10:01:07.000Z,136
2023-05-19T10:01:10.000Z,254
2023-05-19T10:01:11.000Z,142
2023-05-19T10:01:14.000Z,145
2023-05-19T10:01:16.000Z,107
2023-05-19T10:01:19.000Z,117
2023-05-19T10:01:22.000Z,128
2023-05-19T10:01:25.000Z,147
2023-05-19T10:01:28.000Z,147
2023-05-19T10:01:30.000Z,296
2023-05-19T10:01:31.000Z,144
2023-05-19T10:01:34.000Z,144
2023-05-19T10:01:41.000Z,141
2023-05-19T10:01:44.000Z,133
2023-05-19T10:01:47.000Z,143
2023-05-19T10:01:50.000Z,268
2023-05-19T10:01:53.000Z,148
2023-05-19T10:01:56.000Z,125
2023-05-19T10:02:11.000Z,400
2023-05-19T10:02:31.000Z,400
2023-05-19T10:02:46.000Z,101
2023-05-19T10:02:51.000Z,303
2023-05-19T10:02:54.000Z,121
2023-05-19T10:03:00.000Z,148
2023-05-19T10:03:02.000Z,144
2023-05-19T10:03:05.000Z,141
2023-05-19T10:03:11.000Z,111
2023-05-19T10:03:12.000Z,400
2023-05-19T10:03:18.000Z,89
2023-05-19T10:03:23.000Z,146
2023-05-19T10:03:25.000Z,139
2023-05-19T10:03:28.000Z,133
2023-05-19T10:03:30.000Z,121
2023-05-19T10:03:32.000Z,125
2023-05-19T10:03:52.000Z,253
2023-05-19T10:04:12.000Z,400
2023-05-19T10:04:33.000Z,400
2023-05-19T10:04:53.000Z,400
2023-05-19T10:05:13.000Z,400
2023-05-19T10:05:34.000Z,400
2023-05-19T10:05:46.000Z,103
2023-05-19T10:05:54.000Z,307
2023-05-19T10:06:14.000Z,339
2023-05-19T10:06:34.000Z,287
2023-05-19T10:06:55.000Z,400
2023-05-19T10:07:12.000Z,122
2023-05-19T10:07:15.000Z,400
2023-05-19T10:07:35.000Z,400
2023-05-19T10:07:56.000Z,400
2023-05-19T10:08:05.000Z,110
2023-05-19T10:08:16.000Z,400
2023-05-19T10:08:36.000Z,400
2023-05-19T10:08:56.000Z,400
2023-05-19T10:08:59.000Z,112
2023-05-19T10:09:17.000Z,400
2023-05-19T10:09:20.000Z,130
2023-05-19T10:09:37.000Z,400
2023-05-19T10:09:57.000Z,400
2023-05-19T10:10:17.000Z,400
2023-05-19T10:10:34.000Z,91
2023-05-19T10:10:37.000Z,145
2023-05-19T10:10:38.000Z,169
2023-05-19T10:10:42.000Z,143
2023-05-19T10:10:55.000Z,99
2023-05-19T10:10:58.000Z,400
2023-05-19T10:11:10.000Z,149
2023-05-19T10:11:18.000Z,400
2023-05-19T10:11:20.000Z,110
2023-05-19T10:11:38.000Z,307
2023-05-19T10:11:45.000Z,50
2023-05-19T10:11:47.000Z,35
2023-05-19T10:11:50.000Z,145
2023-05-19T10:11:52.000Z,36
2023-05-19T10:11:55.000Z,23
2023-05-19T10:11:58.000Z,101
2023-05-19T10:11:59.000Z,105
2023-05-19T10:12:00.000Z,101
2023-05-19T10:12:03.000Z,12
2023-05-19T10:12:05.000Z,7
2023-05-19T10:12:08.000Z,101
2023-05-19T10:12:11.000Z,5
2023-05-19T10:12:13.000Z,8
2023-05-19T10:12:16.000Z,15
2023-05-19T10:12:18.000Z,104
2023-05-19T10:12:19.000Z,100
2023-05-19T10:12:21.000Z,23
2023-05-19T10:12:23.000Z,97
2023-05-19T10:12:26.000Z,98
2023-05-19T10:12:28.000Z,99
2023-05-19T10:12:31.000Z,99
2023-05-19T10:12:33.000Z,110
2023-05-19T10:12:36.000Z,11
2023-05-19T10:12:39.000Z,19
2023-05-19T10:12:39.000Z,13
2023-05-19T10:12:41.000Z,110
2023-05-19T10:12:44.000Z,108
2023-05-19T10:12:46.000Z,108
2023-05-19T10:12:49.000Z,109
2023-05-19T10:12:51.000Z,108
2023-05-19T10:12:54.000Z,110
2023-05-19T10:12:57.000Z,110
2023-05-19T10:12:59.000Z,108
2023-05-19T10:13:00.000Z,108
2023-05-19T10:13:02.000Z,109
2023-05-19T10:13:04.000Z,109
2023-05-19T10:13:07.000Z,108
2023-05-19T10:13:09.000Z,108
2023-05-19T10:13:12.000Z,108
2023-05-19T10:13:14.000Z,108
2023-05-19T10:13:17.000Z,108
2023-05-19T10:13:19.000Z,108
2023-05-19T10:13:20.000Z,108
2023-05-19T10:13:22.000Z,108
2023-05-19T10:13:25.000Z,109
2023-05-19T10:13:27.000Z,109
2023-05-19T10:13:30.000Z,109
2023-05-19T10:13:32.000Z,109
2023-05-19T10:13:35.000Z,108
2023-05-19T10:13:37.000Z,108
2023-05-19T10:13:40.000Z,108
2023-05-19T10:13:40.000Z,11
2023-05-19T10:13:40.000Z,109
2023-05-19T10:13:40.000Z,2
2023-05-19T10:21:04.000Z,7
2023-05-19T10:21:07.000Z,5
2023-05-19T10:21:09.000Z,6
2023-05-19T10:21:12.000Z,5
2023-05-19T10:21:14.000Z,5
2023-05-19T10:21:17.000Z,5
2023-05-19T10:21:19.000Z,5
2023-05-19T10:21:22.000Z,2
2023-05-19T10:21:22.000Z,5
2023-05-19T10:21:24.000Z,8
2023-05-19T10:21:27.000Z,7
2023-05-19T10:21:29.000Z,3
2023-05-19T10:21:32.000Z,3
2023-05-19T10:21:34.000Z,2
2023-05-19T10:21:37.000Z,4
2023-05-19T10:21:39.000Z,2
2023-05-19T10:21:42.000Z,2
2023-05-19T10:21:42.000Z,400
2023-05-19T10:21:45.000Z,2
2023-05-19T10:21:47.000Z,3
2023-05-19T10:21:50.000Z,3
2023-05-19T10:21:52.000Z,3
2023-05-19T10:21:55.000Z,3
2023-05-19T10:21:57.000Z,4
2023-05-19T10:22:00.000Z,3
2023-05-19T10:22:02.000Z,4
2023-05-19T10:22:02.000Z,1
2023-05-19T10:22:05.000Z,3
2023-05-19T10:22:07.000Z,2
2023-05-19T10:22:10.000Z,2
2023-05-19T10:22:12.000Z,3
2023-05-19T10:22:15.000Z,2
2023-05-19T10:22:17.000Z,3
2023-05-19T10:22:20.000Z,2
2023-05-19T10:22:23.000Z,2
2023-05-19T10:22:23.000Z,1
2023-05-19T10:22:25.000Z,2
2023-05-19T10:22:28.000Z,3
2023-05-19T10:22:30.000Z,2
2023-05-19T10:22:33.000Z,3
2023-05-19T10:22:35.000Z,2
2023-05-19T10:22:38.000Z,2
2023-05-19T10:22:40.000Z,2
2023-05-19T10:22:43.000Z,2
2023-05-19T10:22:43.000Z,400
2023-05-19T10:22:45.000Z,2
2023-05-19T10:22:48.000Z,2
2023-05-19T10:22:50.000Z,2
2023-05-19T10:22:53.000Z,2
2023-05-19T10:22:55.000Z,3
2023-05-19T10:22:58.000Z,3
2023-05-19T10:23:01.000Z,3
2023-05-19T10:23:03.000Z,3
2023-05-19T10:23:03.000Z,3
2023-05-19T10:23:06.000Z,2
2023-05-19T10:23:08.000Z,3
2023-05-19T10:23:11.000Z,2
2023-05-19T10:23:13.000Z,2
2023-05-19T10:23:16.000Z,2
2023-05-19T10:23:18.000Z,2
2023-05-19T10:23:21.000Z,2
2023-05-19T10:23:23.000Z,2
2023-05-19T10:23:24.000Z,2
2023-05-19T10:23:26.000Z,2
2023-05-19T10:23:28.000Z,2
2023-05-19T10:23:31.000Z,2
2023-05-19T10:23:33.000Z,2
2023-05-19T10:23:36.000Z,3
2023-05-19T10:23:39.000Z,2
2023-05-19T10:23:41.000Z,3
2023-05-19T10:23:44.000Z,5
2023-05-19T10:23:44.000Z,4
2023-05-19T10:23:46.000Z,5
2023-05-19T10:23:49.000Z,5
2023-05-19T10:23:51.000Z,4
2023-05-19T10:23:54.000Z,5
2023-05-19T10:23:56.000Z,5
2023-05-19T10:23:59.000Z,6
2023-05-19T10:24:01.000Z,6
2023-05-19T10:24:04.000Z,7
2023-05-19T10:24:04.000Z,7
2023-05-19T10:24:06.000Z,9
2023-05-19T10:24:24.000Z,180
2023-05-19T10:24:45.000Z,181
2023-05-19T10:25:05.000Z,183
2023-05-19T10:25:25.000Z,183
2023-05-19T10:25:33.000Z,400
2023-05-19T10:34:19.000Z,400
2023-05-19T10:34:39.000Z,400
2023-05-19T10:35:00.000Z,400
2023-05-19T10:35:06.000Z,41
2023-05-19T10:35:09.000Z,5
2023-05-19T10:35:09.000Z,5
2023-05-19T10:35:46.000Z,4
2023-05-19T10:35:48.000Z,4
2023-05-19T10:35:51.000Z,4
2023-05-19T10:35:53.000Z,5
2023-05-19T10:35:56.000Z,5
2023-05-19T10:35:58.000Z,5
2023-05-19T10:36:01.000Z,5
2023-05-19T10:36:03.000Z,3
2023-05-19T10:36:03.000Z,5
2023-05-19T10:36:06.000Z,5
2023-05-19T10:36:08.000Z,5
2023-05-19T10:36:11.000Z,5
2023-05-19T10:36:13.000Z,5
2023-05-19T10:36:16.000Z,5
2023-05-19T10:36:19.000Z,4
2023-05-19T10:36:21.000Z,4
2023-05-19T10:36:24.000Z,3
2023-05-19T10:36:24.000Z,3
2023-05-19T10:36:26.000Z,4
2023-05-19T10:36:29.000Z,4
2023-05-19T10:36:31.000Z,3
2023-05-19T10:36:34.000Z,4
2023-05-19T10:36:36.000Z,4
2023-05-19T10:36:39.000Z,3
2023-05-19T10:36:41.000Z,3
2023-05-19T10:36:44.000Z,4
2023-05-19T10:36:44.000Z,4
2023-05-19T10:36:46.000Z,3
2023-05-19T10:36:49.000Z,6
2023-05-19T10:36:51.000Z,6
2023-05-19T10:36:54.000Z,7
2023-05-19T10:36:57.000Z,7
2023-05-19T10:36:59.000Z,6
2023-05-19T10:37:02.000Z,6
2023-05-19T10:37:04.000Z,6
2023-05-19T10:37:04.000Z,8
2023-05-19T10:37:07.000Z,7
2023-05-19T10:37:09.000Z,8
2023-05-19T10:37:12.000Z,7
2023-05-19T10:37:14.000Z,6
2023-05-19T10:37:17.000Z,7
2023-05-19T10:37:19.000Z,7
2023-05-19T10:37:22.000Z,7
2023-05-19T10:37:24.000Z,7
2023-05-19T10:37:25.000Z,7
2023-05-19T10:37:27.000Z,6
2023-05-19T10:37:29.000Z,7
2023-05-19T10:37:32.000Z,7
2023-05-19T10:37:35.000Z,6
2023-05-19T10:37:37.000Z,14
2023-05-19T10:37:40.000Z,13
2023-05-19T10:37:42.000Z,13
2023-05-19T10:37:45.000Z,13
2023-05-19T10:37:45.000Z,11
2023-05-19T10:37:47.000Z,10
2023-05-19T10:37:50.000Z,11
2023-05-19T10:37:52.000Z,14
2023-05-19T10:37:55.000Z,11
2023-05-19T10:37:57.000Z,11
2023-05-19T10:38:00.000Z,10
2023-05-19T10:38:02.000Z,10
2023-05-19T10:38:05.000Z,10
2023-05-19T10:38:05.000Z,6
2023-05-19T10:38:07.000Z,11
2023-05-19T10:38:10.000Z,11
2023-05-19T10:38:13.000Z,11
2023-05-19T10:38:15.000Z,11
2023-05-19T10:38:18.000Z,10
2023-05-19T10:38:20.000Z,9
2023-05-19T10:38:23.000Z,10
2023-05-19T10:38:25.000Z,11
2023-05-19T10:38:25.000Z,10
2023-05-19T10:38:28.000Z,10
2023-05-19T10:38:30.000Z,10
2023-05-19T10:38:33.000Z,10
2023-05-19T10:38:35.000Z,10
2023-05-19T10:38:38.000Z,9
2023-05-19T10:38:40.000Z,9
2023-05-19T10:38:43.000Z,9
2023-05-19T10:38:46.000Z,10
2023-05-19T10:38:46.000Z,9
2023-05-19T10:38:48.000Z,9
2023-05-19T10:38:51.000Z,9
2023-05-19T10:38:53.000Z,9
2023-05-19T10:38:56.000Z,9
2023-05-19T10:38:58.000Z,7
2023-05-19T10:39:01.000Z,7
2023-05-19T10:39:03.000Z,7
2023-05-19T10:39:06.000Z,7
2023-05-19T10:39:06.000Z,7
2023-05-19T10:39:08.000Z,6
2023-05-19T10:39:11.000Z,6
2023-05-19T10:39:14.000Z,6
2023-05-19T10:39:16.000Z,6
2023-05-19T10:39:19.000Z,6
2023-05-19T10:39:21.000Z,5
2023-05-19T10:39:24.000Z,4
2023-05-19T10:39:26.000Z,5
2023-05-19T10:39:26.000Z,7
2023-05-19T10:39:29.000Z,5
2023-05-19T10:39:31.000Z,5
2023-05-19T10:39:34.000Z,6
2023-05-19T10:39:36.000Z,6
2023-05-19T10:39:39.000Z,5
2023-05-19T10:39:41.000Z,6
2023-05-19T10:39:44.000Z,6
2023-05-19T10:39:46.000Z,6
2023-05-19T10:39:47.000Z,400
2023-05-19T10:39:49.000Z,6
2023-05-19T10:39:52.000Z,6
2023-05-19T10:39:54.000Z,6
2023-05-19T10:39:57.000Z,7
2023-05-19T10:39:59.000Z,6
2023-05-19T10:40:02.000Z,6
2023-05-19T10:40:04.000Z,7
2023-05-19T10:40:07.000Z,6
2023-05-19T10:40:07.000Z,2
2023-05-19T10:40:09.000Z,6
2023-05-19T10:40:12.000Z,7
2023-05-19T10:40:14.000Z,6
2023-05-19T10:40:17.000Z,7
2023-05-19T10:40:19.000Z,6
2023-05-19T10:40:22.000Z,6
2023-05-19T10:40:24.000Z,6
2023-05-19T10:40:27.000Z,1
2023-05-19T10:40:27.000Z,6
2023-05-19T10:40:29.000Z,6
2023-05-19T10:40:32.000Z,6
2023-05-19T10:40:35.000Z,6
2023-05-19T10:40:37.000Z,6
2023-05-19T10:40:40.000Z,6
2023-05-19T10:40:42.000Z,6
2023-05-19T10:40:45.000Z,6
2023-05-19T10:40:47.000Z,7
2023-05-19T10:40:47.000Z,400
2023-05-19T10:40:50.000Z,7
2023-05-19T10:40:52.000Z,7
2023-05-19T10:40:55.000Z,8
2023-05-19T10:40:57.000Z,7
2023-05-19T10:41:00.000Z,7
2023-05-19T10:41:02.000Z,8
2023-05-19T10:41:05.000Z,8
2023-05-19T10:41:07.000Z,8
2023-05-19T10:41:08.000Z,3
2023-05-19T10:41:10.000Z,8
2023-05-19T10:41:13.000Z,7
2023-05-19T10:41:15.000Z,7
2023-05-19T10:41:18.000Z,7
2023-05-19T10:41:20.000Z,8
2023-05-19T10:41:23.000Z,8
2023-05-19T10:41:25.000Z,7
2023-05-19T10:41:28.000Z,6
2023-05-19T10:41:28.000Z,7
2023-05-19T10:41:30.000Z,7
2023-05-19T10:41:33.000Z,7
2023-05-19T10:41:35.000Z,6
2023-05-19T10:41:38.000Z,7
2023-05-19T10:41:40.000Z,6
2023-05-19T10:41:43.000Z,6
2023-05-19T10:41:46.000Z,6
2023-05-19T10:41:48.000Z,6
2023-05-19T10:41:48.000Z,7
2023-05-19T10:41:51.000Z,6
2023-05-19T10:41:53.000Z,7
2023-05-19T10:41:56.000Z,6
2023-05-19T10:41:58.000Z,6
2023-05-19T10:42:01.000Z,6
2023-05-19T10:42:03.000Z,7
2023-05-19T10:42:06.000Z,6
2023-05-19T10:42:08.000Z,6
2023-05-19T10:42:08.000Z,2
2023-05-19T10:42:11.000Z,6
2023-05-19T10:42:13.000Z,6
2023-05-19T10:42:16.000Z,6
2023-05-19T10:42:18.000Z,6
2023-05-19T10:42:21.000Z,5
2023-05-19T10:42:23.000Z,6
2023-05-19T10:42:26.000Z,6
2023-05-19T10:42:29.000Z,6
2023-05-19T10:42:29.000Z,1
2023-05-19T10:42:31.000Z,6
2023-05-19T10:42:34.000Z,6
2023-05-19T10:42:36.000Z,6
2023-05-19T10:42:39.000Z,6
2023-05-19T10:42:41.000Z,6
2023-05-19T10:42:44.000Z,6
2023-05-19T10:42:46.000Z,6
2023-05-19T10:42:49.000Z,7
2023-05-19T10:42:49.000Z,6
2023-05-19T10:42:51.000Z,6
2023-05-19T10:42:54.000Z,7
2023-05-19T10:42:56.000Z,6
2023-05-19T10:42:59.000Z,6
2023-05-19T10:43:01.000Z,6
2023-05-19T10:43:04.000Z,7
2023-05-19T10:43:07.000Z,7
2023-05-19T10:43:09.000Z,2
2023-05-19T10:43:09.000Z,6
2023-05-19T10:43:12.000Z,6
2023-05-19T10:43:14.000Z,7
2023-05-19T10:43:17.000Z,6
2023-05-19T10:43:19.000Z,6
2023-05-19T10:43:22.000Z,6
2023-05-19T10:43:24.000Z,6
2023-05-19T10:43:27.000Z,6
2023-05-19T10:43:29.000Z,6
2023-05-19T10:43:30.000Z,400
2023-05-19T10:43:32.000Z,6
2023-05-19T10:43:34.000Z,6
2023-05-19T10:43:37.000Z,6
2023-05-19T10:43:39.000Z,6
2023-05-19T10:43:42.000Z,6
2023-05-19T10:43:45.000Z,6
2023-05-19T10:43:47.000Z,7
2023-05-19T10:43:50.000Z,6
2023-05-19T10:43:50.000Z,1
2023-05-19T10:43:52.000Z,7
2023-05-19T10:43:55.000Z,6
2023-05-19T10:43:57.000Z,6
2023-05-19T10:44:00.000Z,6
2023-05-19T10:44:02.000Z,6
2023-05-19T10:44:05.000Z,6
2023-05-19T10:44:07.000Z,5
2023-05-19T10:44:10.000Z,6
2023-05-19T10:44:10.000Z,5
2023-05-19T10:44:12.000Z,5
2023-05-19T10:44:15.000Z,5
2023-05-19T10:44:18.000Z,6
2023-05-19T10:44:20.000Z,3
2023-05-19T10:44:22.000Z,5
2023-05-19T10:44:25.000Z,5
2023-05-19T10:44:28.000Z,6
2023-05-19T10:44:30.000Z,2
2023-05-19T10:44:30.000Z,6
2023-05-19T10:44:33.000Z,6
2023-05-19T10:44:35.000Z,7
2023-05-19T10:44:38.000Z,6
2023-05-19T10:44:40.000Z,6
2023-05-19T10:44:43.000Z,7
2023-05-19T10:44:45.000Z,6
2023-05-19T10:44:48.000Z,6
2023-05-19T10:44:50.000Z,7
2023-05-19T10:44:51.000Z,6
2023-05-19T10:44:53.000Z,7
2023-05-19T10:44:55.000Z,6
2023-05-19T10:44:58.000Z,7
2023-05-19T10:45:00.000Z,6
2023-05-19T10:45:03.000Z,6
2023-05-19T10:45:06.000Z,6
2023-05-19T10:45:08.000Z,7
2023-05-19T10:45:11.000Z,6
2023-05-19T10:45:11.000Z,6
2023-05-19T10:45:13.000Z,6
2023-05-19T10:45:16.000Z,7
2023-05-19T10:45:18.000Z,7
2023-05-19T10:45:21.000Z,6
2023-05-19T10:45:23.000Z,6
2023-05-19T10:45:26.000Z,6
2023-05-19T10:45:28.000Z,7
2023-05-19T10:45:31.000Z,6
2023-05-19T10:45:31.000Z,2
2023-05-19T10:45:34.000Z,6
2023-05-19T10:45:36.000Z,6
2023-05-19T10:45:39.000Z,6
2023-05-19T10:45:41.000Z,7
2023-05-19T10:45:44.000Z,7
2023-05-19T10:45:46.000Z,6
2023-05-19T10:45:49.000Z,7
2023-05-19T10:45:51.000Z,6
2023-05-19T10:45:52.000Z,6
2023-05-19T10:45:54.000Z,6
2023-05-19T10:45:56.000Z,6
2023-05-19T10:45:59.000Z,6
2023-05-19T10:46:01.000Z,7
2023-05-19T10:46:04.000Z,7
2023-05-19T10:46:06.000Z,8
2023-05-19T10:46:09.000Z,8
2023-05-19T10:46:12.000Z,8
2023-05-19T10:46:12.000Z,8
2023-05-19T10:46:14.000Z,8
2023-05-19T10:46:17.000Z,8
2023-05-19T10:46:19.000Z,8
2023-05-19T10:46:22.000Z,8
2023-05-19T10:46:24.000Z,8
2023-05-19T10:46:27.000Z,8
2023-05-19T10:46:29.000Z,8
2023-05-19T10:46:32.000Z,8
2023-05-19T10:46:32.000Z,8
2023-05-19T10:46:34.000Z,8
2023-05-19T10:46:37.000Z,8
2023-05-19T10:46:39.000Z,8
2023-05-19T10:46:42.000Z,8
2023-05-19T10:46:45.000Z,6
2023-05-19T10:46:47.000Z,7
2023-05-19T10:46:49.000Z,7
2023-05-19T10:46:52.000Z,6
2023-05-19T10:46:52.000Z,6
2023-05-19T10:46:55.000Z,6
2023-05-19T10:46:57.000Z,6
2023-05-19T10:47:00.000Z,6
2023-05-19T10:47:02.000Z,7
2023-05-19T10:47:05.000Z,6
2023-05-19T10:47:07.000Z,6
2023-05-19T10:47:10.000Z,6
2023-05-19T10:47:12.000Z,7
2023-05-19T10:47:13.000Z,6
2023-05-19T10:47:15.000Z,7
2023-05-19T10:47:17.000Z,6
2023-05-19T10:47:20.000Z,6
2023-05-19T10:47:22.000Z,6
2023-05-19T10:47:25.000Z,6
2023-05-19T10:47:27.000Z,7
2023-05-19T10:47:30.000Z,6
2023-05-19T10:47:33.000Z,6
2023-05-19T10:47:33.000Z,6
2023-05-19T10:47:35.000Z,6
2023-05-19T10:47:38.000Z,7
2023-05-19T10:47:40.000Z,6
2023-05-19T10:47:43.000Z,7
2023-05-19T10:47:45.000Z,6
2023-05-19T10:47:48.000Z,6
2023-05-19T10:47:50.000Z,7
2023-05-19T10:47:53.000Z,6
2023-05-19T10:47:53.000Z,7
2023-05-19T10:47:55.000Z,6
2023-05-19T10:47:58.000Z,7
2023-05-19T10:48:00.000Z,6
2023-05-19T10:48:03.000Z,6
2023-05-19T10:48:05.000Z,6
2023-05-19T10:48:08.000Z,6
2023-05-19T10:48:11.000Z,7
2023-05-19T10:48:13.000Z,6
2023-05-19T10:48:13.000Z,5
2023-05-19T10:48:16.000Z,7
2023-05-19T10:48:18.000Z,6
2023-05-19T10:48:21.000Z,6
2023-05-19T10:48:23.000Z,6
2023-05-19T10:48:26.000Z,7
2023-05-19T10:48:28.000Z,7
2023-05-19T10:48:31.000Z,7
2023-05-19T10:48:33.000Z,7
2023-05-19T10:48:34.000Z,7
2023-05-19T10:48:36.000Z,6
2023-05-19T10:48:38.000Z,6
2023-05-19T10:48:41.000Z,7
2023-05-19T10:48:43.000Z,7
2023-05-19T10:48:46.000Z,7
2023-05-19T10:48:48.000Z,7
2023-05-19T10:48:51.000Z,8
2023-05-19T10:48:54.000Z,7
2023-05-19T10:48:54.000Z,7
2023-05-19T10:48:56.000Z,7
2023-05-19T10:48:59.000Z,8
2023-05-19T10:49:01.000Z,7
2023-05-19T10:49:04.000Z,7
2023-05-19T10:49:06.000Z,7
2023-05-19T10:49:09.000Z,7
2023-05-19T10:49:11.000Z,7
2023-05-19T10:49:14.000Z,7
2023-05-19T10:49:14.000Z,6
2023-05-19T10:49:16.000Z,7
2023-05-19T10:49:19.000Z,7
2023-05-19T10:49:21.000Z,7
2023-05-19T10:49:24.000Z,7
2023-05-19T10:49:26.000Z,5
2023-05-19T10:49:29.000Z,6
2023-05-19T10:49:31.000Z,6
2023-05-19T10:49:34.000Z,7
2023-05-19T10:49:34.000Z,7
2023-05-19T10:49:37.000Z,6
2023-05-19T10:49:39.000Z,4
2023-05-19T10:49:42.000Z,4
2023-05-19T10:49:44.000Z,4
2023-05-19T10:49:47.000Z,4
2023-05-19T10:49:49.000Z,4
2023-05-19T10:49:52.000Z,4
2023-05-19T10:49:54.000Z,4
2023-05-19T10:49:55.000Z,2
2023-05-19T10:49:57.000Z,4
2023-05-19T10:49:59.000Z,4
2023-05-19T10:50:02.000Z,3
2023-05-19T10:50:05.000Z,6
2023-05-19T10:50:07.000Z,7
2023-05-19T10:50:10.000Z,7
2023-05-19T10:50:12.000Z,5
2023-05-19T10:50:15.000Z,7
2023-05-19T10:50:15.000Z,6
2023-05-19T10:50:17.000Z,7
2023-05-19T10:50:20.000Z,7
2023-05-19T10:50:22.000Z,6
2023-05-19T10:50:25.000Z,7
2023-05-19T10:50:27.000Z,7
2023-05-19T10:50:30.000Z,6
2023-05-19T10:50:32.000Z,6
2023-05-19T10:50:35.000Z,8
2023-05-19T10:50:35.000Z,6
2023-05-19T10:50:37.000Z,6
2023-05-19T10:50:40.000Z,6
2023-05-19T10:50:43.000Z,7
2023-05-19T10:50:45.000Z,7
2023-05-19T10:50:48.000Z,7
2023-05-19T10:50:50.000Z,7
2023-05-19T10:50:53.000Z,7
2023-05-19T10:50:55.000Z,7
2023-05-19T10:50:56.000Z,3
2023-05-19T10:50:58.000Z,6
2023-05-19T10:51:00.000Z,7
2023-05-19T10:51:03.000Z,6
2023-05-19T10:51:05.000Z,6
2023-05-19T10:51:08.000Z,7
2023-05-19T10:51:10.000Z,7
2023-05-19T10:51:13.000Z,6
2023-05-19T10:51:15.000Z,7
2023-05-19T10:51:16.000Z,1
2023-05-19T10:51:18.000Z,6
2023-05-19T10:51:20.000Z,7
2023-05-19T10:51:23.000Z,6
2023-05-19T10:51:26.000Z,6
2023-05-19T10:51:28.000Z,6
2023-05-19T10:51:31.000Z,6
2023-05-19T10:51:33.000Z,7
2023-05-19T10:51:36.000Z,2
2023-05-19T10:51:36.000Z,6
2023-05-19T10:51:38.000Z,7
2023-05-19T10:51:41.000Z,7
2023-05-19T10:51:43.000Z,6
2023-05-19T10:51:46.000Z,6
2023-05-19T10:51:48.000Z,6
2023-05-19T10:51:51.000Z,6
2023-05-19T10:51:53.000Z,6
2023-05-19T10:51:56.000Z,7
2023-05-19T10:51:57.000Z,1
2023-05-19T10:51:59.000Z,6
2023-05-19T10:52:01.000Z,6
2023-05-19T10:52:04.000Z,7
2023-05-19T10:52:06.000Z,6
2023-05-19T10:52:09.000Z,6
2023-05-19T10:52:11.000Z,6
2023-05-19T10:52:14.000Z,6
2023-05-19T10:52:16.000Z,6
2023-05-19T10:52:17.000Z,6
2023-05-19T10:52:19.000Z,6
2023-05-19T10:52:21.000Z,6
2023-05-19T10:52:24.000Z,6
2023-05-19T10:52:26.000Z,7
2023-05-19T10:52:29.000Z,6
2023-05-19T10:52:31.000Z,6
2023-05-19T10:52:34.000Z,6
2023-05-19T10:52:36.000Z,7
2023-05-19T10:52:37.000Z,7
2023-05-19T10:52:39.000Z,6
2023-05-19T10:52:42.000Z,7
2023-05-19T10:52:44.000Z,6
2023-05-19T10:52:47.000Z,6
2023-05-19T10:52:49.000Z,7
2023-05-19T10:52:52.000Z,6
2023-05-19T10:52:54.000Z,6
2023-05-19T10:52:57.000Z,2
2023-05-19T10:52:57.000Z,7
2023-05-19T10:52:59.000Z,6
2023-05-19T10:53:02.000Z,6
2023-05-19T10:53:04.000Z,6
2023-05-19T10:53:07.000Z,7
2023-05-19T10:53:09.000Z,7
2023-05-19T10:53:12.000Z,7
2023-05-19T10:53:14.000Z,7
2023-05-19T10:53:17.000Z,6
2023-05-19T10:53:18.000Z,2
2023-05-19T10:53:19.000Z,7
2023-05-19T10:53:22.000Z,7
2023-05-19T10:53:25.000Z,7